Ferry Kyoto II — JI3701 — position and weather

sailwx.info

Track history (hours):
 
Tides and Currents Weather Stations Pressure Air Temp Water Temp Dewpoint Dewpoint Depression Visibility Wind Speed Wind Dir Waves Ship Positions

Ferry Kyoto II

Last reported at 2017-Mar-25 16:33 UTC. Time now 2017-Mar-25 21:48 UTC.
Position N 33°44' E 132°16'.

Length 167 m; draft 5.9 m.

Type: Ship. MMSI: 431301641.

Date/timePositionNaut miles runAvg speedWind from/ knotsBaromVisibWave heightAir tempDewpointWater temp
2017-Mar-25 16:33N 33°44' E 132°16'2019.7
2017-Mar-25 15:33N 33°54' E 132°37'11719.5
2017-Mar-25 09:33N 34°34' E 134°50'2222.2
2017-Mar-25 08:33N 34°36' E 135°17'8 7.2
2017-Mar-25 07:29N 34°37' E 135°26'0 0.0
2017-Mar-25 06:29N 34°37' E 135°26'0 0.0
2017-Mar-25 05:29N 34°37' E 135°26'0 0.0
2017-Mar-25 04:29N 34°37' E 135°26'0 0.0
2017-Mar-25 03:29N 34°37' E 135°26'0 0.0
2017-Mar-25 02:29N 34°37' E 135°26'0 0.0
2017-Mar-25 01:23N 34°37' E 135°26'0 0.0
2017-Mar-25 00:29N 34°37' E 135°26'0 0.0
2017-Mar-24 23:29N 34°37' E 135°26'0 0.0
2017-Mar-24 22:29N 34°37' E 135°26'0 0.0
2017-Mar-24 21:23N 34°37' E 135°26'0 0.0
2017-Mar-24 20:29N 34°37' E 135°26'910.1
2017-Mar-24 19:34N 34°36' E 135°15'1818.5
2017-Mar-24 18:34N 34°34' E 134°52'11018.3
2017-Mar-24 12:33N 34°01' E 132°46'2222.2
2017-Mar-24 11:33N 33°47' E 132°25'14 0.7
2017-Mar-23 17:05N 33°42' E 132°09'1120.4
2017-Mar-23 16:33N 33°46' E 132°22'2020.5
2017-Mar-23 15:33N 33°57' E 132°42'11419.0
2017-Mar-23 09:33N 34°35' E 134°52'2121.3
2017-Mar-23 08:33N 34°36' E 135°18'6 6.4
2017-Mar-23 07:32N 34°37' E 135°26'0 0.0
2017-Mar-23 06:32N 34°37' E 135°26'0 0.0
2017-Mar-23 05:32N 34°37' E 135°26'0 0.0
2017-Mar-23 04:32N 34°37' E 135°26'0 0.0
2017-Mar-23 03:26N 34°37' E 135°26'0 0.0
2017-Mar-23 02:32N 34°37' E 135°26'0 0.0
2017-Mar-23 01:32N 34°37' E 135°26'0 0.0
2017-Mar-23 00:32N 34°37' E 135°26'0 0.0
2017-Mar-22 23:26N 34°37' E 135°26'0 0.0
2017-Mar-22 22:32N 34°37' E 135°26'0 0.0
2017-Mar-22 21:32N 34°37' E 135°26'0 0.0
2017-Mar-22 20:32N 34°37' E 135°26'1010.3
2017-Mar-22 19:34N 34°35' E 135°14'1918.6
2017-Mar-22 18:34N 34°34' E 134°51'11118.0
2017-Mar-22 12:25N 33°59' E 132°44'1921.7
2017-Mar-22 11:33N 33°50' E 132°24'17 0.9
2017-Mar-21 17:20N 33°46' E 132°04'1721.9
2017-Mar-21 16:33N 33°51' E 132°24'13619.5
2017-Mar-21 09:34N 34°37' E 134°59'1919.1
2017-Mar-21 08:34N 34°38' E 135°23'3 2.6
2017-Mar-21 07:28N 34°37' E 135°26'0 0.0
2017-Mar-21 06:29N 34°37' E 135°26'0 0.0
2017-Mar-21 05:29N 34°37' E 135°26'0 0.0
2017-Mar-21 04:29N 34°37' E 135°26'0 0.0
2017-Mar-21 03:29N 34°37' E 135°26'0 0.0
2017-Mar-21 02:29N 34°37' E 135°26'0 0.0
2017-Mar-21 01:23N 34°37' E 135°26'0 0.0
2017-Mar-21 00:28N 34°37' E 135°26'0 0.0
2017-Mar-20 23:29N 34°37' E 135°26'0 0.0
2017-Mar-20 22:29N 34°37' E 135°26'0 0.0
2017-Mar-20 21:28N 34°37' E 135°26'0 0.0
2017-Mar-20 20:28N 34°37' E 135°26'1314.5
2017-Mar-20 19:33N 34°35' E 135°10'1919.0
2017-Mar-20 18:33N 34°32' E 134°47'10818.0
2017-Mar-20 12:33N 33°57' E 132°43'2221.8
2017-Mar-20 11:32N 33°45' E 132°21'7 0.4
2017-Mar-19 17:03N 33°43' E 132°13'1121.0
2017-Mar-19 16:33N 33°47' E 132°25'2020.2
2017-Mar-19 15:33N 33°60' E 132°44'11218.7
2017-Mar-19 09:33N 34°35' E 134°53'2019.9
2017-Mar-19 08:34N 34°37' E 135°17'7 6.6
2017-Mar-19 07:27N 34°37' E 135°26'0 0.0
2017-Mar-19 06:33N 34°37' E 135°26'0 0.0
2017-Mar-19 05:33N 34°37' E 135°26'0 0.0
2017-Mar-19 04:33N 34°37' E 135°26'0 0.0
2017-Mar-19 03:33N 34°37' E 135°26'0 0.0
2017-Mar-19 02:33N 34°37' E 135°26'0 0.0
2017-Mar-19 01:33N 34°37' E 135°26'0 0.0
2017-Mar-19 00:27N 34°37' E 135°26'0 0.0
2017-Mar-18 23:33N 34°37' E 135°26'0 0.0
2017-Mar-18 22:33N 34°37' E 135°26'0 0.0
2017-Mar-18 21:21N 34°37' E 135°26'0 0.0
2017-Mar-18 20:33N 34°37' E 135°26'1111.4
2017-Mar-18 19:33N 34°35' E 135°12'1918.8
2017-Mar-18 18:33N 34°33' E 134°50'10 0.3
2017-Mar-17 09:33N 34°38' E 135°01'1818.6
2017-Mar-17 08:33N 34°38' E 135°23'2 2.2
2017-Mar-17 07:28N 34°37' E 135°26'0 0.0
2017-Mar-17 06:22N 34°37' E 135°26'0 0.0
2017-Mar-17 05:28N 34°37' E 135°26'0 0.0
2017-Mar-17 04:16N 34°37' E 135°26'0 0.0
2017-Mar-17 03:22N 34°37' E 135°26'0 0.0
2017-Mar-17 02:28N 34°37' E 135°26'0 0.0
2017-Mar-17 01:22N 34°37' E 135°26'0 0.0
2017-Mar-17 00:28N 34°37' E 135°26'0 0.0
2017-Mar-16 23:28N 34°37' E 135°26'0 0.0
2017-Mar-16 22:28N 34°37' E 135°26'0 0.0
2017-Mar-16 21:22N 34°37' E 135°26'0 0.0
2017-Mar-16 20:31N 34°37' E 135°26'1212.6
2017-Mar-16 19:33N 34°34' E 135°12'2119.3
2017-Mar-16 18:27N 34°32' E 134°46'  
Track history (hours):
 
Tides and Currents Weather Stations Pressure Air Temp Water Temp Dewpoint Dewpoint Depression Visibility Wind Speed Wind Dir Waves Ship Positions

Ferry Kyoto II

Last reported at 2017-Mar-25 16:33 UTC. Time now 2017-Mar-25 21:48 UTC.
Position N 33°44' E 132°16'.

Length 167 m; draft 5.9 m.

Type: Ship. MMSI: 431301641.

Date/timePositionNaut miles runAvg speedWind from/ knotsBaromVisibWave heightAir tempDewpointWater temp
2017-Mar-25 16:33N 33°44' E 132°16'2019.7
2017-Mar-25 15:33N 33°54' E 132°37'11719.5
2017-Mar-25 09:33N 34°34' E 134°50'2222.2
2017-Mar-25 08:33N 34°36' E 135°17'8 7.2
2017-Mar-25 07:29N 34°37' E 135°26'0 0.0
2017-Mar-25 06:29N 34°37' E 135°26'0 0.0
2017-Mar-25 05:29N 34°37' E 135°26'0 0.0
2017-Mar-25 04:29N 34°37' E 135°26'0 0.0
2017-Mar-25 03:29N 34°37' E 135°26'0 0.0
2017-Mar-25 02:29N 34°37' E 135°26'0 0.0
2017-Mar-25 01:23N 34°37' E 135°26'0 0.0
2017-Mar-25 00:29N 34°37' E 135°26'0 0.0
2017-Mar-24 23:29N 34°37' E 135°26'0 0.0
2017-Mar-24 22:29N 34°37' E 135°26'0 0.0
2017-Mar-24 21:23N 34°37' E 135°26'0 0.0
2017-Mar-24 20:29N 34°37' E 135°26'910.1
2017-Mar-24 19:34N 34°36' E 135°15'1818.5
2017-Mar-24 18:34N 34°34' E 134°52'11018.3
2017-Mar-24 12:33N 34°01' E 132°46'2222.2
2017-Mar-24 11:33N 33°47' E 132°25'14 0.7
2017-Mar-23 17:05N 33°42' E 132°09'1120.4
2017-Mar-23 16:33N 33°46' E 132°22'2020.5
2017-Mar-23 15:33N 33°57' E 132°42'11419.0
2017-Mar-23 09:33N 34°35' E 134°52'2121.3
2017-Mar-23 08:33N 34°36' E 135°18'6 6.4
2017-Mar-23 07:32N 34°37' E 135°26'0 0.0
2017-Mar-23 06:32N 34°37' E 135°26'0 0.0
2017-Mar-23 05:32N 34°37' E 135°26'0 0.0
2017-Mar-23 04:32N 34°37' E 135°26'0 0.0
2017-Mar-23 03:26N 34°37' E 135°26'0 0.0
2017-Mar-23 02:32N 34°37' E 135°26'0 0.0
2017-Mar-23 01:32N 34°37' E 135°26'0 0.0
2017-Mar-23 00:32N 34°37' E 135°26'0 0.0
2017-Mar-22 23:26N 34°37' E 135°26'0 0.0
2017-Mar-22 22:32N 34°37' E 135°26'0 0.0
2017-Mar-22 21:32N 34°37' E 135°26'0 0.0
2017-Mar-22 20:32N 34°37' E 135°26'1010.3
2017-Mar-22 19:34N 34°35' E 135°14'1918.6
2017-Mar-22 18:34N 34°34' E 134°51'11118.0
2017-Mar-22 12:25N 33°59' E 132°44'1921.7
2017-Mar-22 11:33N 33°50' E 132°24'17 0.9
2017-Mar-21 17:20N 33°46' E 132°04'1721.9
2017-Mar-21 16:33N 33°51' E 132°24'13619.5
2017-Mar-21 09:34N 34°37' E 134°59'1919.1
2017-Mar-21 08:34N 34°38' E 135°23'3 2.6
2017-Mar-21 07:28N 34°37' E 135°26'0 0.0
2017-Mar-21 06:29N 34°37' E 135°26'0 0.0
2017-Mar-21 05:29N 34°37' E 135°26'0 0.0
2017-Mar-21 04:29N 34°37' E 135°26'0 0.0
2017-Mar-21 03:29N 34°37' E 135°26'0 0.0
2017-Mar-21 02:29N 34°37' E 135°26'0 0.0
2017-Mar-21 01:23N 34°37' E 135°26'0 0.0
2017-Mar-21 00:28N 34°37' E 135°26'0 0.0
2017-Mar-20 23:29N 34°37' E 135°26'0 0.0
2017-Mar-20 22:29N 34°37' E 135°26'0 0.0
2017-Mar-20 21:28N 34°37' E 135°26'0 0.0
2017-Mar-20 20:28N 34°37' E 135°26'1314.5
2017-Mar-20 19:33N 34°35' E 135°10'1919.0
2017-Mar-20 18:33N 34°32' E 134°47'10818.0
2017-Mar-20 12:33N 33°57' E 132°43'2221.8
2017-Mar-20 11:32N 33°45' E 132°21'7 0.4
2017-Mar-19 17:03N 33°43' E 132°13'1121.0
2017-Mar-19 16:33N 33°47' E 132°25'2020.2
2017-Mar-19 15:33N 33°60' E 132°44'11218.7
2017-Mar-19 09:33N 34°35' E 134°53'2019.9
2017-Mar-19 08:34N 34°37' E 135°17'7 6.6
2017-Mar-19 07:27N 34°37' E 135°26'0 0.0
2017-Mar-19 06:33N 34°37' E 135°26'0 0.0
2017-Mar-19 05:33N 34°37' E 135°26'0 0.0
2017-Mar-19 04:33N 34°37' E 135°26'0 0.0
2017-Mar-19 03:33N 34°37' E 135°26'0 0.0
2017-Mar-19 02:33N 34°37' E 135°26'0 0.0
2017-Mar-19 01:33N 34°37' E 135°26'0 0.0
2017-Mar-19 00:27N 34°37' E 135°26'0 0.0
2017-Mar-18 23:33N 34°37' E 135°26'0 0.0
2017-Mar-18 22:33N 34°37' E 135°26'0 0.0
2017-Mar-18 21:21N 34°37' E 135°26'0 0.0
2017-Mar-18 20:33N 34°37' E 135°26'1111.4
2017-Mar-18 19:33N 34°35' E 135°12'1918.8
2017-Mar-18 18:33N 34°33' E 134°50'10 0.3
2017-Mar-17 09:33N 34°38' E 135°01'1818.6
2017-Mar-17 08:33N 34°38' E 135°23'2 2.2
2017-Mar-17 07:28N 34°37' E 135°26'0 0.0
2017-Mar-17 06:22N 34°37' E 135°26'0 0.0
2017-Mar-17 05:28N 34°37' E 135°26'0 0.0
2017-Mar-17 04:16N 34°37' E 135°26'0 0.0
2017-Mar-17 03:22N 34°37' E 135°26'0 0.0
2017-Mar-17 02:28N 34°37' E 135°26'0 0.0
2017-Mar-17 01:22N 34°37' E 135°26'0 0.0
2017-Mar-17 00:28N 34°37' E 135°26'0 0.0
2017-Mar-16 23:28N 34°37' E 135°26'0 0.0
2017-Mar-16 22:28N 34°37' E 135°26'0 0.0
2017-Mar-16 21:22N 34°37' E 135°26'0 0.0
2017-Mar-16 20:31N 34°37' E 135°26'1212.6
2017-Mar-16 19:33N 34°34' E 135°12'2119.3
2017-Mar-16 18:27N 34°32' E 134°46'  

Dump ship's entire track history